Time;durP1;ratioP1;P1;durP2;ratioP2;P2;SDS_P1;SDS_P2;PMS_P1;PMS_P2;Temp;Humidity;BMP_temperature;BMP_pressure;BME280_temperature;BME280_humidity;BME280_pressure;Samples;Min_cycle;Max_cycle;Signal;HPM_P1;HPM_P2
2022/02/02 00:01:22;;;;;;;10.88;4.57;;;;;;;5.26;84.03;100005.81;5094276;28;20101;-64
2022/02/02 00:03:55;;;;;;;20.15;5.55;;;;;;;5.25;83.76;100011.78;5094720;28;20048;-64
2022/02/02 00:06:36;;;;;;;19.77;5.32;;;;;;;5.26;83.92;100009.28;5076080;28;20032;-64
2022/02/02 00:09:10;;;;;;;12.35;4.00;;;;;;;5.27;83.73;100010.13;5094093;28;20035;-64
2022/02/02 00:19:39;;;;;;;25.10;5.65;;;;;;;5.27;84.21;100010.13;5093934;28;20043;-63
2022/02/02 00:22:17;;;;;;;21.75;4.47;;;;;;;5.28;84.17;100017.03;5092744;28;20106;-63
2022/02/02 00:27:24;;;;;;;17.23;4.85;;;;;;;5.27;83.56;100015.28;5092565;28;20024;-64
2022/02/02 00:30:02;;;;;;;13.70;5.65;;;;;;;5.26;83.78;100019.56;5093868;28;20032;-65
2022/02/02 00:35:12;;;;;;;18.52;5.30;;;;;;;5.27;83.89;100012.72;5093821;28;20036;-64
2022/02/02 00:37:43;;;;;;;14.48;4.90;;;;;;;5.26;84.03;100024.69;5075828;28;20036;-64
2022/02/02 00:40:14;;;;;;;17.88;5.38;;;;;;;5.27;83.77;100026.44;5075754;28;20136;-64
2022/02/02 00:42:48;;;;;;;17.15;5.38;;;;;;;5.27;84.13;100036.72;5094092;28;20032;-64
2022/02/02 00:45:20;;;;;;;;;;;;;;;5.26;84.05;100034.09;5092868;28;20119;-64
2022/02/02 00:47:49;;;;;;;20.80;5.18;;;;;;;5.26;83.86;100032.41;5093842;28;20002;-63
2022/02/02 00:50:24;;;;;;;19.05;6.25;;;;;;;5.26;84.57;100041.78;5092350;28;20493;-64
2022/02/02 00:52:56;;;;;;;21.30;5.65;;;;;;;5.24;84.06;100038.28;5093528;28;20050;-64
2022/02/02 00:55:24;;;;;;;14.20;4.20;;;;;;;5.24;84.34;100038.28;5092648;28;20123;-64
2022/02/02 00:57:58;;;;;;;20.42;5.38;;;;;;;5.23;83.87;100042.56;5093402;28;20032;-64
2022/02/02 01:00:26;;;;;;;19.60;6.13;;;;;;;5.26;83.94;100036.66;5092645;28;20024;-63
2022/02/02 01:02:59;;;;;;;19.70;5.22;;;;;;;5.26;83.70;100046.94;5093478;28;20120;-64
2022/02/02 01:05:30;;;;;;;14.77;5.22;;;;;;;5.27;83.86;100051.25;5092297;28;20059;-63
2022/02/02 01:10:32;;;;;;;26.08;6.30;;;;;;;5.26;83.89;100040.13;5093567;28;20101;-64
2022/02/02 01:18:35;;;;;;;19.08;5.47;;;;;;;5.27;84.35;100052.16;5093201;28;20476;-64
2022/02/02 01:21:06;;;;;;;15.75;5.57;;;;;;;5.28;83.90;100055.59;5075612;28;20033;-64
2022/02/02 01:29:05;;;;;;;17.45;5.70;;;;;;;5.26;84.46;100052.06;5093490;28;20032;-64
2022/02/02 01:31:30;;;;;;;20.33;5.68;;;;;;;5.27;83.90;100046.13;5093544;28;20093;-65
2022/02/02 01:33:59;;;;;;;20.25;4.93;;;;;;;5.26;84.00;100037.56;5093379;28;20085;-64
2022/02/02 01:36:27;;;;;;;23.65;5.88;;;;;;;5.26;84.30;100040.13;5091850;28;20406;-64
2022/02/02 01:41:29;;;;;;;16.55;5.07;;;;;;;5.25;83.71;100046.06;5132174;27;20358;-63
2022/02/02 01:44:06;;;;;;;14.63;5.90;;;;;;;5.27;83.64;100059.84;5096406;28;20505;-64
2022/02/02 01:46:36;;;;;;;19.85;6.38;;;;;;;5.27;84.19;100054.72;5096373;28;20031;-64
2022/02/02 01:54:54;;;;;;;24.38;5.93;;;;;;;5.27;84.07;100069.25;5131895;28;20133;-64
2022/02/02 01:59:54;;;;;;;14.48;4.45;;;;;;;5.29;84.43;100067.63;5113112;28;20069;-64
2022/02/02 02:02:28;;;;;;;28.77;6.00;;;;;;;5.29;84.17;100065.03;5113221;28;20553;-64
2022/02/02 02:04:59;;;;;;;20.40;5.30;;;;;;;5.28;83.84;100060.72;5113254;28;20134;-64
2022/02/02 02:07:30;;;;;;;19.65;6.25;;;;;;;5.29;84.15;100055.66;5095970;28;20038;-64
2022/02/02 02:09:58;;;;;;;19.88;6.05;;;;;;;5.28;84.15;100068.44;5113086;28;20039;-63
2022/02/02 02:12:28;;;;;;;16.02;5.40;;;;;;;5.29;84.31;100065.03;5131230;28;20577;-63
2022/02/02 02:15:05;;;;;;;17.17;5.20;;;;;;;5.30;84.02;100052.25;5113341;28;20096;-65
2022/02/02 02:17:31;;;;;;;14.25;5.38;;;;;;;5.30;84.04;100053.94;5131299;28;20024;-64
2022/02/02 02:20:02;;;;;;;24.55;6.28;;;;;;;5.31;84.06;100046.28;5112689;28;20035;-65
2022/02/02 02:22:35;;;;;;;17.33;4.80;;;;;;;5.32;83.70;100047.19;5112695;28;20394;-64
2022/02/02 02:25:10;;;;;;;20.13;6.78;;;;;;;5.31;83.96;100051.41;5131076;28;20035;-64
2022/02/02 02:27:38;;;;;;;14.35;4.75;;;;;;;5.30;83.88;100038.53;5096160;28;20120;-64
2022/02/02 02:30:19;;;;;;;18.45;6.10;;;;;;;5.33;84.38;100043.78;5112770;28;20138;-64
2022/02/02 02:35:44;;;;;;;15.73;4.07;;;;;;;5.30;83.97;100061.66;5112528;28;20031;-64
2022/02/02 02:58:35;;;;;;;25.65;7.10;;;;;;;5.32;83.64;100088.28;5116915;28;20379;-64
2022/02/02 03:00:53;;;;;;;15.90;5.18;;;;;;;5.31;84.28;100073.69;5105349;28;20039;-63
2022/02/02 03:55:51;;;;;;;17.58;4.57;;;;;;;5.37;84.41;100078.19;5115694;28;20035;-63
2022/02/02 03:58:32;;;;;;;19.95;5.85;;;;;;;5.37;84.30;100067.91;5116167;28;20040;-63
2022/02/02 04:06:19;;;;;;;20.23;5.07;;;;;;;5.37;84.24;100073.94;5115854;28;20064;-63
2022/02/02 04:08:48;;;;;;;15.32;4.45;;;;;;;5.37;83.60;100068.78;5115229;28;20039;-64
2022/02/02 04:55:56;;;;;;;17.42;5.28;;;;;;;5.37;83.93;100122.78;5069296;28;20115;-64
2022/02/02 05:15:20;;;;;;;17.08;5.53;;;;;;;5.35;84.02;100134.69;5095732;28;20070;-64
2022/02/02 05:54:15;;;;;;;14.02;4.82;;;;;;;5.41;84.32;100145.19;5114296;28;20134;-64
2022/02/02 05:56:52;;;;;;;32.38;7.55;;;;;;;5.42;84.03;100153.78;5079102;28;20045;-64
2022/02/02 05:59:26;;;;;;;16.33;4.63;;;;;;;5.40;84.33;100148.56;5095664;28;20028;-63
2022/02/02 06:01:59;;;;;;;13.98;4.75;;;;;;;5.41;84.21;100157.16;5095601;28;20459;-63
2022/02/02 06:07:02;;;;;;;18.98;4.97;;;;;;;5.41;84.19;100160.59;5152809;27;20532;-64
2022/02/02 06:09:35;;;;;;;11.50;5.63;;;;;;;5.42;84.62;100174.34;5132081;27;20391;-63
2022/02/02 06:12:04;;;;;;;18.50;6.32;;;;;;;5.41;84.13;100180.31;5097258;28;20036;-63
2022/02/02 06:14:32;;;;;;;13.93;5.70;;;;;;;5.42;84.18;100184.63;5096475;28;20077;-64
2022/02/02 06:17:06;;;;;;;15.90;4.88;;;;;;;5.42;84.22;100180.34;5131675;27;20104;-64
2022/02/02 06:19:31;;;;;;;17.27;6.07;;;;;;;5.42;84.25;100184.63;5113767;28;20040;-64
2022/02/02 06:22:05;;;;;;;14.20;5.25;;;;;;;5.42;84.06;100185.50;5131932;28;20138;-64
2022/02/02 06:24:40;;;;;;;17.52;4.82;;;;;;;5.41;84.49;100183.75;5096047;28;20057;-64
2022/02/02 06:27:18;;;;;;;21.33;5.85;;;;;;;5.42;84.47;100190.63;5113395;28;20059;-64
2022/02/02 06:30:11;;;;;;;16.65;5.22;;;;;;;5.41;84.04;100196.59;5131772;28;20042;-63
2022/02/02 06:32:47;;;;;;;14.80;5.55;;;;;;;5.41;84.54;100188.88;5112313;28;20108;-64
2022/02/02 06:35:19;;;;;;;18.30;5.72;;;;;;;5.41;84.08;100194.03;5131534;28;20032;-64
2022/02/02 06:37:46;;;;;;;16.75;5.40;;;;;;;5.40;84.35;100184.56;5113026;28;20035;-64
2022/02/02 06:40:23;;;;;;;11.23;5.82;;;;;;;5.42;84.51;100194.91;5131279;27;20034;-64
2022/02/02 06:42:52;;;;;;;21.02;5.10;;;;;;;5.42;84.00;100182.94;5131489;28;20077;-64
2022/02/02 06:45:18;;;;;;;18.10;4.85;;;;;;;5.42;84.46;100187.19;5113104;28;20027;-64
2022/02/02 06:47:45;;;;;;;11.73;5.80;;;;;;;5.43;84.13;100197.53;5095733;28;20494;-63
2022/02/02 06:53:48;;;;;;;15.75;5.95;;;;;;;5.44;83.85;100203.56;5131364;28;20039;-64
2022/02/02 07:13:09;;;;;;;15.90;5.55;;;;;;;5.44;84.09;100239.56;5112890;28;20390;-64
2022/02/02 07:21:05;;;;;;;14.68;6.45;;;;;;;5.44;83.94;100248.13;5116917;28;20493;-63
2022/02/02 07:33:49;;;;;;;13.57;6.82;;;;;;;5.44;84.33;100254.97;5098641;28;20035;-64
2022/02/02 07:36:27;;;;;;;15.27;6.90;;;;;;;5.43;84.10;100254.09;5081419;28;20070;-65
2022/02/02 07:39:04;;;;;;;17.67;6.72;;;;;;;5.43;84.27;100264.38;5081626;28;20039;-64
2022/02/02 07:41:33;;;;;;;15.93;5.47;;;;;;;5.44;84.28;100267.84;5116641;28;20544;-65
2022/02/02 07:44:08;;;;;;;10.10;6.45;;;;;;;5.44;84.25;100266.13;5081208;28;20509;-64
2022/02/02 07:46:36;;;;;;;12.65;5.38;;;;;;;5.43;84.04;100269.50;5081238;28;20039;-64
2022/02/02 07:49:02;;;;;;;20.65;7.63;;;;;;;5.46;84.08;100266.19;5081061;28;20097;-64
2022/02/02 07:51:27;;;;;;;16.95;6.32;;;;;;;5.45;84.59;100265.31;5081128;28;20479;-65
2022/02/02 07:53:58;;;;;;;15.25;6.20;;;;;;;5.46;84.60;100272.22;5098038;28;20035;-64
2022/02/02 07:56:29;;;;;;;19.92;6.70;;;;;;;5.47;84.38;100270.50;5116449;28;20044;-64
2022/02/02 07:59:12;;;;;;;10.40;6.03;;;;;;;5.48;84.56;100278.31;5081297;28;20028;-65
2022/02/02 08:01:48;;;;;;;10.48;5.15;;;;;;;5.49;83.76;100277.50;5080909;28;20493;-64
2022/02/02 08:06:48;;;;;;;14.43;6.25;;;;;;;5.48;84.35;100293.72;5111534;27;20359;-63
2022/02/02 08:09:23;;;;;;;20.17;6.85;;;;;;;5.49;84.58;100292.00;5110372;28;20044;-64
2022/02/02 08:11:51;;;;;;;15.20;6.93;;;;;;;5.49;84.64;100290.34;5110243;28;20032;-64
2022/02/02 08:14:16;;;;;;;15.85;6.65;;;;;;;5.49;84.71;100280.06;5127038;28;20046;-63
2022/02/02 08:16:44;;;;;;;13.70;6.32;;;;;;;5.49;83.94;100285.19;5110381;28;20044;-64
2022/02/02 08:19:16;;;;;;;13.90;5.70;;;;;;;5.51;83.93;100289.53;5111202;28;20089;-65
2022/02/02 08:21:47;;;;;;;11.77;5.97;;;;;;;5.51;83.81;100297.25;5109987;28;20063;-63
2022/02/02 08:24:13;;;;;;;11.05;6.45;;;;;;;5.52;84.30;100297.28;5092836;28;20036;-63
2022/02/02 08:26:41;;;;;;;13.02;6.75;;;;;;;5.50;83.97;100298.91;5092778;28;20044;-64
2022/02/02 08:29:08;;;;;;;16.88;7.45;;;;;;;5.52;84.20;100293.84;5110306;28;20067;-64
2022/02/02 08:31:38;;;;;;;11.10;6.50;;;;;;;5.53;84.25;100300.75;5110181;28;20032;-63
2022/02/02 08:34:09;;;;;;;13.15;6.20;;;;;;;5.52;84.27;100293.84;5110979;28;20040;-64
2022/02/02 08:36:36;;;;;;;15.82;7.20;;;;;;;5.50;83.77;100291.19;5110973;28;20032;-63
2022/02/02 08:41:39;;;;;;;18.77;7.57;;;;;;;5.49;84.44;100295.47;5109549;28;20031;-64
2022/02/02 08:44:12;;;;;;;16.23;6.28;;;;;;;5.50;84.28;100293.78;5111226;28;20051;-63
2022/02/02 08:46:42;;;;;;;17.55;7.05;;;;;;;5.48;84.02;100306.56;5092184;28;20081;-63
2022/02/02 08:49:13;;;;;;;10.40;7.07;;;;;;;5.48;84.29;100300.53;5110678;28;20039;-63
2022/02/02 08:51:46;;;;;;;17.08;8.18;;;;;;;5.48;84.39;100308.25;5109696;28;20036;-63
2022/02/02 08:54:44;;;;;;;13.68;7.68;;;;;;;5.48;84.22;100303.13;5092148;28;20052;-64
2022/02/02 08:57:28;;;;;;;12.45;7.05;;;;;;;5.48;84.35;100309.16;5110258;28;20035;-63
2022/02/02 09:00:06;;;;;;;18.40;7.95;;;;;;;5.49;84.52;100316.03;5092501;28;20047;-64
2022/02/02 09:02:34;;;;;;;21.90;8.98;;;;;;;5.51;83.82;100315.25;5110397;28;20487;-64
2022/02/02 09:07:48;;;;;;;24.42;9.73;;;;;;;5.53;84.10;100316.19;5110428;28;20036;-64
2022/02/02 09:10:19;;;;;;;16.70;7.47;;;;;;;5.54;84.23;100330.75;5109198;28;20270;-64
2022/02/02 09:22:29;;;;;;;14.70;7.40;;;;;;;5.54;84.63;100328.19;5096449;28;20040;-64
2022/02/02 09:24:08;;;;;;;19.13;8.80;;;;;;;5.53;84.31;100329.91;5087420;28;20054;-64
2022/02/02 09:34:46;;;;;;;14.95;8.45;;;;;;;5.58;84.05;100345.50;5085393;28;20062;-64
2022/02/02 09:37:16;;;;;;;18.75;9.38;;;;;;;5.59;84.32;100342.13;5078086;28;20039;-64
2022/02/02 09:40:46;;;;;;;21.25;10.07;;;;;;;5.57;84.55;100342.06;5095992;28;20036;-64
2022/02/02 09:42:45;;;;;;;17.13;8.90;;;;;;;5.58;84.35;100350.66;5093930;28;20044;-64
2022/02/02 09:45:21;;;;;;;17.20;9.30;;;;;;;5.57;84.15;100343.75;5096111;28;20066;-64
2022/02/02 09:47:59;;;;;;;19.45;9.90;;;;;;;5.56;84.61;100353.16;5078239;28;20032;-63
2022/02/02 09:50:38;;;;;;;18.17;8.38;;;;;;;5.57;84.63;100346.31;5096128;28;20078;-64
2022/02/02 09:53:18;;;;;;;16.35;10.10;;;;;;;5.57;84.30;100342.06;5078271;28;20040;-64
2022/02/02 09:56:17;;;;;;;15.70;9.65;;;;;;;5.56;84.08;100345.47;5094759;28;20036;-63
2022/02/02 10:01:46;;;;;;;22.60;9.90;;;;;;;5.60;84.66;100351.59;5095729;28;20043;-64
2022/02/02 10:04:45;;;;;;;16.40;9.90;;;;;;;5.60;84.07;100356.75;5095788;28;20032;-64
2022/02/02 10:10:58;;;;;;;19.63;11.38;;;;;;;5.60;84.83;100359.31;5094112;28;20534;-64
2022/02/02 10:15:27;;;;;;;17.08;10.07;;;;;;;5.61;84.13;100366.22;5093759;28;20039;-63
2022/02/02 10:18:16;;;;;;;19.88;11.23;;;;;;;5.61;84.01;100382.50;5077916;28;20066;-64
2022/02/02 10:20:50;;;;;;;22.63;11.55;;;;;;;5.62;84.45;100376.56;5094475;28;20039;-64
2022/02/02 10:23:24;;;;;;;18.55;10.57;;;;;;;5.61;84.30;100376.50;5095308;28;20036;-64
2022/02/02 10:25:58;;;;;;;23.13;11.95;;;;;;;5.61;84.50;100386.78;5076945;28;20031;-64
2022/02/02 10:28:32;;;;;;;19.90;11.25;;;;;;;5.62;84.38;100386.84;5093251;28;20039;-64
2022/02/02 10:31:04;;;;;;;26.30;11.48;;;;;;;5.63;84.63;100382.59;5095426;28;20471;-64
2022/02/02 10:33:31;;;;;;;17.17;11.70;;;;;;;5.63;84.46;100391.16;5076786;28;20637;-63
2022/02/02 10:36:10;;;;;;;20.13;12.50;;;;;;;5.63;84.21;100392.88;5076883;28;20388;-63
2022/02/02 10:38:49;;;;;;;27.00;10.85;;;;;;;5.64;84.00;100400.63;5076824;28;20483;-63
2022/02/02 10:41:26;;;;;;;19.75;11.93;;;;;;;5.65;84.86;100401.53;5093992;28;20044;-64
2022/02/02 10:43:58;;;;;;;18.10;10.95;;;;;;;5.64;84.68;100413.50;5093801;28;20028;-64
2022/02/02 10:46:37;;;;;;;19.05;11.07;;;;;;;5.64;84.47;100403.22;5076546;28;20028;-64
2022/02/02 10:49:22;;;;;;;25.02;10.57;;;;;;;5.66;84.45;100416.16;5077403;28;20391;-64
2022/02/02 11:08:10;;;;;;;18.73;10.73;;;;;;;5.66;84.65;100418.72;5093575;28;20032;-64
2022/02/02 11:10:49;;;;;;;18.52;10.77;;;;;;;5.65;84.57;100422.09;5093344;28;20035;-64
2022/02/02 11:13:19;;;;;;;28.55;11.70;;;;;;;5.67;84.22;100414.44;5094392;28;20032;-64
2022/02/02 11:15:53;;;;;;;22.40;10.85;;;;;;;5.66;84.75;100411.00;5076172;28;20119;-64
2022/02/02 11:18:35;;;;;;;;;;;;;;;5.69;84.75;100417.97;5076748;28;20503;-64
2022/02/02 11:21:10;;;;;;;20.27;10.52;;;;;;;5.69;84.78;100416.25;5094283;28;20002;-64
2022/02/02 11:23:50;;;;;;;19.88;10.35;;;;;;;5.70;84.68;100410.28;5076251;28;20028;-64
2022/02/02 11:26:39;;;;;;;18.48;9.65;;;;;;;5.71;84.15;100409.47;5094044;28;20062;-64
2022/02/02 11:29:36;;;;;;;18.58;9.95;;;;;;;5.70;84.57;100412.88;5092748;28;20130;-65
2022/02/02 11:32:09;;;;;;;15.60;9.40;;;;;;;5.70;84.22;100422.28;5094125;28;20032;-64
2022/02/02 11:34:40;;;;;;;22.48;10.68;;;;;;;5.71;84.38;100419.78;5092859;28;20051;-64
2022/02/02 11:37:12;;;;;;;20.17;11.20;;;;;;;5.70;84.32;100418.00;5092995;28;20036;-63
2022/02/02 11:42:45;;;;;;;23.38;10.10;;;;;;;5.71;84.68;100419.78;5092792;28;20101;-64
2022/02/02 11:45:49;;;;;;;20.83;10.32;;;;;;;5.69;84.82;100420.53;5075494;28;20032;-64
2022/02/02 11:48:45;;;;;;;20.15;10.20;;;;;;;5.67;84.81;100423.06;5092593;28;20044;-64
2022/02/02 11:51:41;;;;;;;18.27;8.95;;;;;;;5.68;84.53;100413.63;5075643;28;20181;-64
2022/02/02 11:54:30;;;;;;;17.75;10.18;;;;;;;5.68;84.35;100419.66;5092831;28;20047;-63
2022/02/02 11:57:11;;;;;;;23.08;10.68;;;;;;;5.69;84.50;100420.53;5073926;28;20063;-64
2022/02/02 12:05:46;;;;;;;17.38;11.18;;;;;;;5.72;84.98;100415.53;5093398;28;20048;-65
2022/02/02 12:35:55;;;;;;;20.85;10.15;;;;;;;5.70;84.57;100410.28;5093405;28;20040;-64
2022/02/02 12:58:33;;;;;;;21.08;9.88;;;;;;;5.82;84.69;100409.94;5095581;28;20483;-64
2022/02/02 13:03:32;;;;;;;17.92;10.18;;;;;;;5.81;85.11;100402.16;5132031;27;20353;-63
2022/02/02 13:06:10;;;;;;;17.65;11.48;;;;;;;5.81;84.68;100405.59;5148049;27;20064;-64
2022/02/02 13:08:38;;;;;;;19.30;10.88;;;;;;;5.82;84.33;100411.66;5113677;28;20039;-63
2022/02/02 13:11:20;;;;;;;19.20;9.45;;;;;;;5.82;84.63;100411.66;5114338;28;20035;-64
2022/02/02 13:13:51;;;;;;;19.85;11.77;;;;;;;5.83;84.77;100415.97;5131951;28;20055;-64
2022/02/02 13:16:25;;;;;;;21.42;9.52;;;;;;;5.84;85.08;100420.31;5096261;28;20521;-64
2022/02/02 13:18:57;;;;;;;16.65;9.50;;;;;;;5.82;84.45;100419.34;5096474;28;20073;-64
2022/02/02 13:21:28;;;;;;;18.10;9.75;;;;;;;5.81;84.38;100417.59;5131474;28;20080;-64
2022/02/02 13:26:54;;;;;;;19.90;9.57;;;;;;;5.82;84.46;100429.66;5113671;28;20064;-64
2022/02/02 13:32:17;;;;;;;19.58;8.90;;;;;;;5.83;84.44;100431.41;5112977;28;20135;-64
2022/02/02 13:57:03;;;;;;;15.82;10.05;;;;;;;5.85;84.65;100468.34;5112725;28;20058;-64
2022/02/02 14:04:37;;;;;;;17.77;8.90;;;;;;;5.83;85.10;100480.28;5109198;28;20044;-64
2022/02/02 14:31:45;;;;;;;15.57;8.43;;;;;;;5.74;84.56;100475.63;5096334;28;20036;-63
2022/02/02 14:34:15;;;;;;;15.57;9.38;;;;;;;5.73;84.78;100477.31;5095023;28;20445;-64
2022/02/02 14:36:49;;;;;;;11.75;7.90;;;;;;;5.73;84.92;100479.88;5094894;28;20487;-64
2022/02/02 14:39:45;;;;;;;11.23;8.35;;;;;;;5.73;84.69;100479.00;5095265;28;20040;-64
2022/02/02 14:44:43;;;;;;;15.50;8.73;;;;;;;5.73;84.54;100481.59;5111530;27;20143;-64
2022/02/02 14:47:20;;;;;;;12.38;8.38;;;;;;;5.73;84.79;100482.44;5093088;28;20561;-64
2022/02/02 14:50:09;;;;;;;13.07;9.40;;;;;;;5.73;84.90;100485.03;5111568;28;20085;-64
2022/02/02 14:52:55;;;;;;;13.40;8.55;;;;;;;5.72;84.68;100490.97;5111321;28;20040;-64
2022/02/02 15:24:33;;;;;;;14.55;9.25;;;;;;;5.79;84.84;100502.41;5110811;28;20119;-63
2022/02/02 15:32:02;;;;;;;16.08;8.18;;;;;;;5.79;85.01;100502.41;5110610;28;20160;-63
2022/02/02 15:34:42;;;;;;;16.08;9.02;;;;;;;5.79;85.01;100513.59;5109213;28;20060;-63
2022/02/02 15:40:11;;;;;;;15.18;7.50;;;;;;;5.80;85.05;100517.03;5110873;28;20047;-64
2022/02/02 15:58:49;;;;;;;18.60;7.35;;;;;;;5.80;85.27;100511.88;5097203;28;20043;-63
2022/02/02 16:04:03;;;;;;;16.13;7.03;;;;;;;5.81;84.65;100503.34;5096427;28;20032;-64
2022/02/02 16:06:28;;;;;;;16.95;8.43;;;;;;;5.82;84.71;100509.41;5078063;28;20483;-64
2022/02/02 16:09:09;;;;;;;13.18;7.90;;;;;;;5.81;85.15;100511.06;5096469;28;20040;-63
2022/02/02 16:11:46;;;;;;;12.70;7.55;;;;;;;5.81;84.81;100508.50;5095422;28;20032;-64
2022/02/02 16:14:22;;;;;;;12.73;7.57;;;;;;;5.81;85.00;100502.50;5096329;28;20036;-63
2022/02/02 16:19:31;;;;;;;15.65;7.43;;;;;;;5.82;85.12;100506.81;5095327;28;20028;-63
2022/02/02 16:25:07;;;;;;;12.30;7.47;;;;;;;5.83;84.84;100506.88;5095307;28;20485;-64
2022/02/02 16:36:18;;;;;;;11.45;8.13;;;;;;;5.86;84.82;100480.38;5096279;28;20040;-64
2022/02/02 16:39:06;;;;;;;14.38;8.60;;;;;;;5.87;84.94;100480.47;5094388;28;20036;-64
2022/02/02 16:44:24;;;;;;;12.95;8.50;;;;;;;5.86;84.92;100475.25;5095538;28;20143;-63
2022/02/02 16:46:52;;;;;;;9.45;7.85;;;;;;;5.86;84.88;100472.66;5130029;27;20563;-64
2022/02/02 16:49:26;;;;;;;8.95;7.30;;;;;;;5.86;84.80;100472.66;5094428;28;20101;-63
2022/02/02 16:52:03;;;;;;;11.15;7.82;;;;;;;5.86;85.13;100468.41;5094432;28;20123;-63
2022/02/02 16:54:39;;;;;;;11.18;7.38;;;;;;;5.85;84.70;100469.22;5095445;28;20032;-64
2022/02/02 17:30:55;;;;;;;10.07;7.97;;;;;;;5.79;85.42;100485.28;5075217;28;20089;-63
2022/02/02 17:33:34;;;;;;;11.25;8.07;;;;;;;5.81;84.78;100487.06;5094719;28;20040;-64
2022/02/02 17:39:05;;;;;;;11.75;7.75;;;;;;;5.82;84.57;100494.81;5093236;28;20043;-64
2022/02/02 18:19:41;;;;;;;12.35;9.35;;;;;;;5.87;84.93;100515.59;5094042;28;20115;-64
2022/02/02 18:22:07;;;;;;;11.95;9.77;;;;;;;5.87;85.13;100513.03;5075928;28;20043;-63
2022/02/02 18:24:42;;;;;;;10.77;9.68;;;;;;;5.87;84.60;100511.34;5093664;28;20036;-65
2022/02/02 18:27:18;;;;;;;11.82;9.13;;;;;;;5.86;85.33;100517.31;5092649;28;20130;-64
2022/02/02 18:32:34;;;;;;;12.75;9.95;;;;;;;5.87;84.76;100506.19;5092590;28;20063;-63
2022/02/02 18:35:03;;;;;;;13.38;10.52;;;;;;;5.88;85.12;100499.34;5092311;28;20479;-64
2022/02/02 18:45:31;;;;;;;10.18;9.00;;;;;;;5.89;85.24;100493.38;5093576;28;20032;-63
2022/02/02 18:58:24;;;;;;;;;;;;;;;5.87;85.05;100500.16;5008467;28;20383;-64
2022/02/02 20:06:58;;;;;;;20.10;15.07;;;;;;;5.99;85.33;100520.38;4998423;28;20474;-64
2022/02/02 20:12:16;;;;;;;21.98;17.13;;;;;;;6.01;85.33;100527.38;4997013;28;20498;-64
2022/02/02 20:14:45;;;;;;;21.45;16.15;;;;;;;6.01;85.54;100526.50;4963104;28;20053;-64
2022/02/02 20:17:15;;;;;;;23.25;16.00;;;;;;;6.01;85.50;100517.09;4978961;28;20034;-64
2022/02/02 20:19:45;;;;;;;22.92;16.42;;;;;;;6.02;85.23;100512.84;4997117;28;20046;-64
2022/02/02 20:22:18;;;;;;;20.80;15.80;;;;;;;6.02;85.05;100524.00;4996611;28;20089;-65
2022/02/02 20:24:52;;;;;;;23.15;18.52;;;;;;;6.01;85.33;100524.81;4979385;28;20034;-64
2022/02/02 20:27:18;;;;;;;22.60;16.35;;;;;;;6.02;85.56;100524.00;4963069;28;20089;-65
2022/02/02 20:29:49;;;;;;;21.02;16.27;;;;;;;6.02;85.34;100529.13;4979313;28;20506;-65
2022/02/02 20:32:17;;;;;;;21.08;16.30;;;;;;;6.03;85.41;100530.03;4996543;28;20038;-64
2022/02/02 20:34:53;;;;;;;21.55;16.88;;;;;;;6.03;85.52;100533.47;4963080;28;20398;-64
2022/02/02 20:37:20;;;;;;;22.70;16.55;;;;;;;6.04;85.70;100534.38;4978846;28;20038;-64
2022/02/02 20:39:56;;;;;;;21.52;16.77;;;;;;;6.04;85.47;100537.81;4996271;28;20058;-64
2022/02/02 21:14:57;;;;;;;19.70;15.68;;;;;;;6.05;85.25;100513.84;4974702;28;20129;-64
2022/02/02 21:17:34;;;;;;;21.88;16.17;;;;;;;6.05;85.74;100513.84;4958101;28;20054;-64
2022/02/02 21:20:16;;;;;;;20.88;15.48;;;;;;;6.04;85.29;100506.94;4976702;28;20113;-64
2022/02/02 21:22:56;;;;;;;19.02;14.77;;;;;;;6.04;85.15;100519.78;4975153;28;20515;-64
2022/02/02 21:28:03;;;;;;;20.25;15.95;;;;;;;6.05;85.29;100521.56;4975820;28;20043;-64
2022/02/02 21:30:34;;;;;;;19.00;15.18;;;;;;;6.05;85.84;100518.13;4975034;28;20050;-64
2022/02/02 21:33:00;;;;;;;19.23;14.90;;;;;;;6.05;85.37;100525.84;4958952;28;20133;-64
2022/02/02 21:35:33;;;;;;;19.83;15.10;;;;;;;6.04;85.46;100522.38;4976002;28;20035;-64
2022/02/02 21:38:02;;;;;;;20.85;16.08;;;;;;;6.04;85.33;100517.22;4975866;28;20038;-64
2022/02/02 21:40:45;;;;;;;21.27;15.65;;;;;;;6.05;85.41;100513.84;4975823;28;20039;-64
2022/02/02 21:43:15;;;;;;;20.85;16.80;;;;;;;6.06;85.28;100513.03;4959289;28;20039;-64
2022/02/02 21:45:40;;;;;;;21.30;16.20;;;;;;;6.05;85.52;100528.41;4975673;28;20038;-64
2022/02/02 21:48:09;;;;;;;20.80;16.70;;;;;;;6.05;85.35;100521.56;4974519;28;20431;-64
2022/02/02 21:50:46;;;;;;;24.63;17.27;;;;;;;6.05;85.36;100521.56;4974373;28;20031;-64
2022/02/02 21:53:12;;;;;;;21.13;16.95;;;;;;;6.05;85.36;100521.56;4974131;28;20082;-64
2022/02/02 21:55:39;;;;;;;23.85;16.67;;;;;;;6.06;85.33;100520.75;4975483;28;20063;-64
2022/02/02 21:58:05;;;;;;;22.65;16.75;;;;;;;6.06;85.15;100522.44;4974462;28;20043;-64
2022/02/02 22:00:31;;;;;;;23.55;18.48;;;;;;;6.06;85.36;100525.03;4975925;28;20391;-64
2022/02/02 22:03:02;;;;;;;22.83;17.75;;;;;;;6.07;85.62;100527.66;4989658;28;20057;-64
2022/02/02 22:05:30;;;;;;;19.13;14.30;;;;;;;6.07;85.12;100525.06;4961207;28;20037;-64
2022/02/02 22:07:56;;;;;;;23.65;16.75;;;;;;;6.07;85.54;100524.22;4994528;28;20070;-64
2022/02/02 22:10:22;;;;;;;28.40;17.90;;;;;;;6.09;85.51;100514.84;4994889;28;20034;-65
2022/02/02 22:12:48;;;;;;;22.80;17.63;;;;;;;6.08;85.64;100524.25;4977144;28;20137;-65
2022/02/02 22:15:38;;;;;;;22.85;17.90;;;;;;;6.08;85.26;100519.13;4977074;28;20053;-65
2022/02/02 22:18:04;;;;;;;28.10;16.90;;;;;;;6.08;85.92;100518.22;4961122;28;20085;-65
2022/02/02 22:20:33;;;;;;;26.02;18.30;;;;;;;6.08;85.76;100515.66;4977308;28;20038;-64
2022/02/02 22:22:59;;;;;;;23.50;18.63;;;;;;;6.08;85.76;100519.13;4977112;28;20038;-64
2022/02/02 22:25:24;;;;;;;27.05;18.25;;;;;;;6.08;85.75;100519.13;4977085;28;20076;-64
2022/02/02 22:27:50;;;;;;;22.33;17.67;;;;;;;6.09;85.63;100523.44;4994222;28;20085;-64
2022/02/02 22:30:16;;;;;;;25.48;19.88;;;;;;;6.09;85.04;100522.56;4994589;28;20469;-64
2022/02/02 22:32:44;;;;;;;25.35;19.23;;;;;;;6.10;85.40;100521.75;4994331;28;20048;-65
2022/02/02 22:35:09;;;;;;;24.42;18.08;;;;;;;6.10;85.30;100526.88;4976774;28;20027;-64
2022/02/02 22:37:41;;;;;;;26.85;20.58;;;;;;;6.11;85.53;100522.63;4976618;28;20069;-64
2022/02/02 22:40:14;;;;;;;24.85;18.63;;;;;;;6.12;85.70;100526.97;4977323;28;20363;-63
2022/02/02 22:42:44;;;;;;;27.92;19.80;;;;;;;6.10;85.50;100524.31;4960609;28;20034;-63
2022/02/02 22:45:13;;;;;;;26.30;18.50;;;;;;;6.11;85.25;100526.06;4976960;28;20027;-63
2022/02/02 22:47:43;;;;;;;25.15;18.10;;;;;;;6.11;85.80;100520.94;4993875;28;20046;-63
2022/02/02 22:50:12;;;;;;;27.55;19.38;;;;;;;6.11;85.49;100528.66;4976794;28;20042;-65
2022/02/02 22:52:46;;;;;;;23.55;18.65;;;;;;;6.11;85.00;100526.06;4960553;28;20436;-64
2022/02/02 22:55:14;;;;;;;31.23;19.55;;;;;;;6.11;85.47;100522.63;4976725;28;20456;-64
2022/02/02 22:57:42;;;;;;;27.67;18.08;;;;;;;6.12;85.13;100526.97;4994041;28;20097;-64
2022/02/02 23:00:15;;;;;;;23.92;17.38;;;;;;;6.12;85.17;100529.53;4994237;28;20057;-63
2022/02/02 23:05:09;;;;;;;25.55;19.50;;;;;;;6.12;85.35;100520.13;4976285;28;20035;-63
2022/02/02 23:07:40;;;;;;;25.02;18.63;;;;;;;6.12;85.55;100512.41;4994085;28;20049;-63
2022/02/02 23:10:06;;;;;;;26.20;18.05;;;;;;;6.12;85.68;100517.53;4960716;28;20046;-63
2022/02/02 23:12:37;;;;;;;27.40;19.40;;;;;;;6.12;85.20;100509.81;4994389;28;20042;-63
2022/02/02 23:15:13;;;;;;;23.67;17.27;;;;;;;6.12;85.88;100512.41;4961410;28;20038;-65
2022/02/02 23:17:44;;;;;;;28.90;19.00;;;;;;;6.13;85.45;100508.16;4993909;28;20057;-63
2022/02/02 23:20:10;;;;;;;23.45;17.63;;;;;;;6.13;85.68;100505.56;4994134;28;20046;-64
2022/02/02 23:22:47;;;;;;;27.45;19.38;;;;;;;6.13;85.41;100509.00;4993783;28;20049;-63
2022/02/02 23:25:16;;;;;;;26.73;18.52;;;;;;;6.14;85.88;100507.31;4993763;28;20448;-64
2022/02/02 23:27:46;;;;;;;27.85;19.95;;;;;;;6.15;85.33;100507.38;4976357;28;20070;-64
2022/02/02 23:30:21;;;;;;;28.90;20.52;;;;;;;6.15;85.70;100506.53;4994213;28;20034;-64